createdAt,value
2023-01-04T00:01:22.144Z,94.05
2023-01-04T00:03:49.999Z,94.05
2023-01-04T00:06:19.841Z,94.13
2023-01-04T00:08:50.576Z,94.91
2023-01-04T00:11:20.761Z,94.72
2023-01-04T00:13:50.607Z,95.24
2023-01-04T00:16:21.144Z,94.53
2023-01-04T00:18:49.510Z,94.50
2023-01-04T00:21:20.169Z,94.67
2023-01-04T00:23:51.706Z,94.21
2023-01-04T00:26:21.959Z,94.72
2023-01-04T00:28:54.162Z,94.45
2023-01-04T00:31:23.072Z,94.53
2023-01-04T00:33:51.290Z,94.19
2023-01-04T00:36:20.365Z,93.99
2023-01-04T00:38:48.068Z,93.66
2023-01-04T00:41:34.778Z,93.69
2023-01-04T00:44:04.444Z,93.31
2023-01-04T00:46:32.518Z,93.23
2023-01-04T00:49:01.398Z,93.06
2023-01-04T00:51:31.963Z,92.71
2023-01-04T00:54:01.983Z,92.57
2023-01-04T00:56:30.478Z,91.38
2023-01-04T00:58:59.092Z,91.47
2023-01-04T01:01:28.171Z,91.09
2023-01-04T01:03:56.971Z,90.92
2023-01-04T01:06:26.411Z,90.65
2023-01-04T01:08:55.707Z,90.83
2023-01-04T01:11:24.255Z,90.60
2023-01-04T01:13:52.470Z,90.75
2023-01-04T01:16:51.777Z,89.82
2023-01-04T01:19:11.010Z,89.42
2023-01-04T01:21:39.899Z,89.37
2023-01-04T01:24:16.076Z,89.55
2023-01-04T01:26:43.763Z,89.38
2023-01-04T01:29:11.452Z,89.90
2023-01-04T01:31:39.816Z,89.75
2023-01-04T01:34:07.517Z,90.13
2023-01-04T01:36:35.528Z,89.94
2023-01-04T01:39:03.211Z,90.02
2023-01-04T01:41:35.286Z,90.18
2023-01-04T01:44:04.585Z,90.16
2023-01-04T01:46:38.797Z,90.76
2023-01-04T01:49:11.436Z,90.49
2023-01-04T01:51:40.443Z,90.98
2023-01-04T01:54:11.786Z,90.45
2023-01-04T01:56:43.948Z,90.84
2023-01-04T01:59:14.359Z,91.03
2023-01-04T02:01:42.358Z,91.19
2023-01-04T02:04:12.116Z,90.98
2023-01-04T02:06:44.663Z,90.93
2023-01-04T02:09:13.441Z,90.89
2023-01-04T02:11:43.217Z,90.38
2023-01-04T02:14:30.043Z,90.77
2023-01-04T02:17:09.545Z,90.25
2023-01-04T02:19:58.995Z,89.90
2023-01-04T02:22:53.758Z,89.54
2023-01-04T02:25:42.352Z,88.96
2023-01-04T02:28:23.840Z,89.25
2023-01-04T02:31:17.409Z,89.50
2023-01-04T02:33:52.433Z,90.18
2023-01-04T02:36:27.675Z,89.67
2023-01-04T02:39:05.571Z,88.99
2023-01-04T02:41:36.015Z,88.66
2023-01-04T02:44:29.256Z,88.07
2023-01-04T02:47:03.803Z,87.79
2023-01-04T02:49:48.907Z,88.04
2023-01-04T02:52:17.573Z,88.82
2023-01-04T02:54:49.829Z,88.85
2023-01-04T02:57:27.068Z,89.23
2023-01-04T03:00:25.398Z,89.54
2023-01-04T03:03:27.209Z,90.10
2023-01-04T03:06:18.547Z,89.86
2023-01-04T03:08:57.389Z,90.08
2023-01-04T03:11:50.509Z,89.87
2023-01-04T03:14:33.248Z,90.05
2023-01-04T03:17:05.865Z,90.33
2023-01-04T03:19:54.931Z,90.23
2023-01-04T03:22:49.316Z,89.56
2023-01-04T03:25:40.412Z,89.44
2023-01-04T03:28:29.673Z,90.01
2023-01-04T03:34:07.938Z,89.48
2023-01-04T03:36:47.754Z,88.84
2023-01-04T03:39:40.129Z,89.63
2023-01-04T03:42:34.799Z,90.19
2023-01-04T03:45:32.432Z,91.02
2023-01-04T03:48:26.492Z,91.60
2023-01-04T03:50:59.463Z,94.69
2023-01-04T03:53:30.277Z,95.81
2023-01-04T03:55:59.991Z,96.34
2023-01-04T03:58:28.201Z,96.22
2023-01-04T04:01:03.247Z,95.00
2023-01-04T04:03:49.399Z,94.03
2023-01-04T04:06:35.166Z,93.62
2023-01-04T04:09:05.673Z,93.11
2023-01-04T04:11:33.680Z,93.22
2023-01-04T04:14:02.346Z,93.82
2023-01-04T04:16:30.109Z,93.50
2023-01-04T04:19:00.856Z,93.71
2023-01-04T04:21:32.311Z,93.70
2023-01-04T04:24:00.389Z,93.77
2023-01-04T04:26:29.460Z,93.25
2023-01-04T04:28:58.030Z,93.47
2023-01-04T04:31:25.736Z,93.29
2023-01-04T04:33:54.386Z,93.34
2023-01-04T04:36:22.071Z,92.81
2023-01-04T04:38:50.127Z,91.86
2023-01-04T04:41:35.633Z,91.93
2023-01-04T04:44:05.470Z,91.71
2023-01-04T04:46:33.183Z,92.13
2023-01-04T04:49:02.265Z,92.25
2023-01-04T04:51:30.278Z,92.51
2023-01-04T04:53:58.348Z,92.63
2023-01-04T04:56:26.083Z,92.07
2023-01-04T04:58:53.899Z,92.42
2023-01-04T05:01:23.315Z,92.57
2023-01-04T05:03:52.273Z,91.21
2023-01-04T05:06:20.157Z,91.08
2023-01-04T05:08:48.264Z,91.81
2023-01-04T05:11:16.230Z,92.17
2023-01-04T05:13:43.549Z,92.66
2023-01-04T05:16:11.641Z,92.10
2023-01-04T05:18:41.563Z,91.62
2023-01-04T05:21:09.215Z,91.94
2023-01-04T05:23:37.483Z,92.20
2023-01-04T05:26:05.255Z,92.03
2023-01-04T05:28:33.103Z,91.76
2023-01-04T05:30:59.785Z,91.18
2023-01-04T05:33:30.477Z,91.93
2023-01-04T05:36:02.480Z,91.45
2023-01-04T05:38:31.501Z,91.42
2023-01-04T05:40:59.167Z,90.97
2023-01-04T05:43:27.366Z,91.37
2023-01-04T05:45:57.646Z,91.30
2023-01-04T05:48:26.400Z,90.81
2023-01-04T05:50:54.392Z,90.65
2023-01-04T05:53:23.845Z,90.22
2023-01-04T05:55:51.506Z,89.10
2023-01-04T05:58:19.651Z,88.67
2023-01-04T06:00:47.414Z,89.06
2023-01-04T06:03:15.848Z,89.37
2023-01-04T06:05:43.577Z,88.97
2023-01-04T06:08:11.244Z,88.47
2023-01-04T06:10:40.579Z,88.95
2023-01-04T06:13:08.294Z,89.68
2023-01-04T06:15:41.099Z,90.04
2023-01-04T06:18:13.813Z,90.25
2023-01-04T06:20:43.772Z,89.41
2023-01-04T06:23:11.584Z,88.11
2023-01-04T06:25:40.632Z,87.56
2023-01-04T06:28:08.267Z,87.10
2023-01-04T06:30:36.716Z,87.32
2023-01-04T06:33:04.529Z,88.24
2023-01-04T06:35:33.026Z,88.00
2023-01-04T06:38:00.668Z,87.84
2023-01-04T06:40:28.965Z,87.36
2023-01-04T06:42:57.962Z,87.39
2023-01-04T06:45:25.707Z,87.42
2023-01-04T06:47:53.348Z,87.88
2023-01-04T06:50:21.432Z,88.51
2023-01-04T06:52:49.088Z,89.01
2023-01-04T06:55:17.178Z,89.83
2023-01-04T06:57:44.921Z,89.43
2023-01-04T07:00:15.793Z,89.67
2023-01-04T07:03:13.632Z,89.42
2023-01-04T07:05:31.931Z,89.36
2023-01-04T07:08:07.341Z,89.25
2023-01-04T07:10:36.365Z,89.07
2023-01-04T07:13:04.828Z,89.31
2023-01-04T07:15:38.112Z,89.30
2023-01-04T07:18:08.312Z,88.94
2023-01-04T07:20:36.604Z,89.24
2023-01-04T07:23:04.636Z,89.01
2023-01-04T07:25:32.445Z,88.80
2023-01-04T07:28:00.300Z,88.31
2023-01-04T07:30:28.716Z,87.76
2023-01-04T07:32:57.935Z,87.80
2023-01-04T07:35:26.160Z,87.69
2023-01-04T07:37:58.324Z,87.84
2023-01-04T07:40:27.620Z,87.94
2023-01-04T07:42:57.663Z,87.92
2023-01-04T07:45:25.573Z,88.16
2023-01-04T07:47:53.288Z,87.27
2023-01-04T07:50:22.417Z,86.73
2023-01-04T07:52:50.070Z,86.87
2023-01-04T07:55:18.434Z,86.60
2023-01-04T07:57:46.127Z,86.10
2023-01-04T08:00:14.943Z,86.00
2023-01-04T08:02:42.795Z,85.50
2023-01-04T08:05:10.908Z,84.88
2023-01-04T08:07:40.043Z,84.64
2023-01-04T08:10:09.724Z,84.11
2023-01-04T08:12:37.474Z,83.96
2023-01-04T08:15:06.727Z,83.70
2023-01-04T08:17:34.461Z,83.39
2023-01-04T08:20:02.500Z,83.21
2023-01-04T08:22:30.169Z,84.35
2023-01-04T08:24:59.790Z,84.63
2023-01-04T08:27:27.855Z,84.64
2023-01-04T08:29:55.520Z,84.61
2023-01-04T08:32:23.848Z,83.99
2023-01-04T08:34:51.625Z,84.33
2023-01-04T08:37:19.572Z,84.38
2023-01-04T08:39:49.464Z,84.24
2023-01-04T08:42:26.619Z,84.32
2023-01-04T08:45:00.928Z,84.54
2023-01-04T08:47:30.002Z,83.39
2023-01-04T08:49:58.361Z,81.59
2023-01-04T08:52:26.279Z,79.87
2023-01-04T08:54:54.410Z,79.47
2023-01-04T08:57:23.534Z,80.23
2023-01-04T08:59:51.230Z,80.68
2023-01-04T09:02:24.821Z,82.02
2023-01-04T09:04:53.009Z,81.93
2023-01-04T09:07:20.760Z,81.35
2023-01-04T09:09:48.628Z,82.04
2023-01-04T09:12:16.480Z,81.96
2023-01-04T09:14:45.711Z,82.04
2023-01-04T09:17:13.694Z,81.90
2023-01-04T09:19:41.348Z,82.53
2023-01-04T09:22:09.560Z,82.45
2023-01-04T09:24:37.314Z,82.04
2023-01-04T09:27:05.286Z,81.63
2023-01-04T09:29:33.318Z,80.04
2023-01-04T09:32:02.465Z,80.19
2023-01-04T09:34:30.267Z,81.57
2023-01-04T09:36:58.693Z,80.61
2023-01-04T09:39:30.296Z,81.52
2023-01-04T09:42:00.245Z,81.01
2023-01-04T09:45:21.023Z,80.49
2023-01-04T09:47:36.272Z,81.35
2023-01-04T09:50:07.842Z,80.17
2023-01-04T09:52:50.485Z,80.32
2023-01-04T09:55:38.097Z,80.78
2023-01-04T09:58:25.747Z,80.32
2023-01-04T10:01:01.474Z,80.77
2023-01-04T10:03:33.429Z,78.31
2023-01-04T10:06:03.031Z,78.42
2023-01-04T10:08:32.690Z,77.71
2023-01-04T10:11:25.513Z,77.96
2023-01-04T10:14:12.175Z,78.73
2023-01-04T10:22:52.268Z,78.84
2023-01-04T10:25:28.728Z,78.72
2023-01-04T10:28:11.710Z,79.72
2023-01-04T10:30:51.311Z,79.39
2023-01-04T10:33:30.337Z,78.87
2023-01-04T10:35:59.943Z,79.29
2023-01-04T10:38:33.058Z,79.42
2023-01-04T10:41:06.435Z,79.89
2023-01-04T10:44:10.756Z,79.52
2023-01-04T10:46:34.315Z,79.14
2023-01-04T10:49:10.328Z,78.05
2023-01-04T10:51:46.568Z,78.75
2023-01-04T10:54:22.665Z,78.29
2023-01-04T10:57:05.159Z,78.52
2023-01-04T10:59:39.758Z,80.03
2023-01-04T11:02:17.106Z,80.32
2023-01-04T11:04:53.013Z,80.14
2023-01-04T11:07:28.098Z,78.36
2023-01-04T11:10:00.842Z,80.20
2023-01-04T11:12:28.700Z,79.17
2023-01-04T11:14:56.635Z,79.33
2023-01-04T11:17:26.357Z,80.14
2023-01-04T11:19:54.835Z,80.39
2023-01-04T11:22:28.780Z,80.74
2023-01-04T11:27:57.011Z,79.56
2023-01-04T11:30:26.773Z,77.97
2023-01-04T11:32:59.841Z,78.08
2023-01-04T11:35:42.698Z,78.16
2023-01-04T11:38:17.944Z,77.71
2023-01-04T11:41:02.133Z,77.76
2023-01-04T11:43:31.544Z,79.77
2023-01-04T11:46:05.105Z,77.37
2023-01-04T11:48:35.700Z,78.59
2023-01-04T11:51:04.007Z,78.96
2023-01-04T11:53:35.467Z,78.65
2023-01-04T11:56:15.891Z,79.23
2023-01-04T11:58:45.873Z,79.89
2023-01-04T12:01:22.791Z,78.34
2023-01-04T12:03:51.632Z,77.54
2023-01-04T12:06:23.391Z,77.59
2023-01-04T12:08:52.426Z,77.31
2023-01-04T12:11:26.971Z,76.52
2023-01-04T12:13:54.640Z,76.79
2023-01-04T12:16:38.875Z,76.36
2023-01-04T12:19:07.627Z,76.29
2023-01-04T12:21:36.399Z,74.04
2023-01-04T12:24:08.005Z,72.76
2023-01-04T12:26:42.089Z,73.39
2023-01-04T12:29:42.719Z,73.85
2023-01-04T12:32:47.357Z,72.29
2023-01-04T12:36:02.061Z,71.67
2023-01-04T12:39:02.531Z,70.84
2023-01-04T12:42:24.706Z,70.53
2023-01-04T12:45:19.935Z,71.05
2023-01-04T12:48:10.212Z,69.31
2023-01-04T12:51:32.696Z,70.60
2023-01-04T12:54:02.803Z,70.02
2023-01-04T12:57:06.086Z,69.54
2023-01-04T12:59:36.736Z,70.54
2023-01-04T13:02:21.488Z,68.80
2023-01-04T13:05:09.358Z,68.84
2023-01-04T13:07:44.429Z,67.86
2023-01-04T13:10:29.974Z,67.50
2023-01-04T13:13:20.954Z,68.08
2023-01-04T13:16:03.192Z,68.13
2023-01-04T13:18:38.682Z,67.24
2023-01-04T13:21:14.091Z,66.67
2023-01-04T13:23:48.009Z,68.25
2023-01-04T13:26:37.107Z,68.12
2023-01-04T13:29:20.416Z,67.46
2023-01-04T13:31:54.394Z,66.74
2023-01-04T13:34:27.331Z,66.73
2023-01-04T13:37:06.678Z,66.42
2023-01-04T13:39:35.250Z,67.24
2023-01-04T13:42:03.665Z,68.31
2023-01-04T13:45:19.295Z,68.23
2023-01-04T13:47:44.437Z,68.41
2023-01-04T13:50:28.095Z,68.71
2023-01-04T13:53:06.137Z,69.09
2023-01-04T13:55:35.856Z,69.34
2023-01-04T13:58:08.462Z,70.59
2023-01-04T14:00:44.944Z,70.06
2023-01-04T14:03:26.287Z,71.98
2023-01-04T14:06:03.040Z,71.61
2023-01-04T14:08:35.765Z,71.49
2023-01-04T14:11:11.506Z,70.49
2023-01-04T14:13:39.255Z,71.36
2023-01-04T14:16:13.599Z,71.14
2023-01-04T14:18:41.455Z,70.90
2023-01-04T14:21:18.034Z,72.12
2023-01-04T14:23:45.765Z,71.33
2023-01-04T14:26:31.722Z,70.75
2023-01-04T14:28:59.980Z,70.89
2023-01-04T14:31:38.154Z,71.90
2023-01-04T14:34:15.471Z,70.81
2023-01-04T14:36:45.919Z,71.10
2023-01-04T14:39:26.547Z,70.82
2023-01-04T14:41:57.591Z,70.37
2023-01-04T14:44:30.495Z,70.59
2023-01-04T14:47:00.727Z,71.08
2023-01-04T14:49:29.339Z,70.80
2023-01-04T14:52:00.065Z,71.31
2023-01-04T14:54:29.507Z,70.77
2023-01-04T14:56:58.777Z,70.69
2023-01-04T14:59:28.588Z,70.54
2023-01-04T15:01:58.104Z,70.65
2023-01-04T15:04:26.238Z,70.87
2023-01-04T15:06:56.463Z,71.30
2023-01-04T15:09:26.286Z,70.54
2023-01-04T15:11:55.471Z,70.15
2023-01-04T15:14:23.782Z,70.17
2023-01-04T15:16:52.690Z,69.81
2023-01-04T15:19:20.380Z,70.49
2023-01-04T15:21:48.285Z,69.87
2023-01-04T15:24:15.953Z,70.35
2023-01-04T15:26:44.997Z,70.94
2023-01-04T15:29:12.657Z,71.48
2023-01-04T15:31:41.593Z,72.18
2023-01-04T15:34:10.624Z,71.85
2023-01-04T15:36:41.129Z,72.55
2023-01-04T15:39:12.030Z,72.36
2023-01-04T15:41:57.198Z,73.04
2023-01-04T15:44:26.702Z,72.41
2023-01-04T15:46:55.371Z,73.09
2023-01-04T15:49:23.138Z,73.04
2023-01-04T15:51:51.038Z,72.01
2023-01-04T15:54:21.472Z,72.42
2023-01-04T15:56:49.696Z,72.13
2023-01-04T15:59:17.803Z,72.54
2023-01-04T16:01:49.133Z,72.36
2023-01-04T16:04:17.217Z,72.62
2023-01-04T16:06:45.001Z,72.00
2023-01-04T16:09:12.756Z,72.31
2023-01-04T16:12:02.234Z,72.50
2023-01-04T16:14:29.921Z,72.41
2023-01-04T16:16:58.983Z,71.91
2023-01-04T16:19:27.548Z,71.95
2023-01-04T16:21:55.272Z,72.32
2023-01-04T16:25:08.275Z,72.11
2023-01-04T16:27:10.728Z,72.36
2023-01-04T16:29:38.417Z,72.25
2023-01-04T16:32:08.718Z,73.73
2023-01-04T16:34:37.044Z,73.42
2023-01-04T16:37:04.764Z,73.66
2023-01-04T16:42:20.179Z,74.05
2023-01-04T16:44:47.841Z,74.98
2023-01-04T16:47:17.170Z,75.36
2023-01-04T16:49:44.970Z,75.24
2023-01-04T16:52:14.068Z,76.00
2023-01-04T16:54:42.180Z,75.99
2023-01-04T16:57:10.358Z,76.34
2023-01-04T16:59:38.044Z,76.99
2023-01-04T17:02:06.292Z,76.01
2023-01-04T17:04:35.571Z,76.29
2023-01-04T17:07:03.627Z,76.66
2023-01-04T17:09:31.332Z,76.41
2023-01-04T17:15:00.813Z,76.67
2023-01-04T17:17:36.329Z,76.69
2023-01-04T17:20:06.588Z,76.44
2023-01-04T17:22:35.196Z,77.17
2023-01-04T17:25:05.825Z,77.31
2023-01-04T17:27:35.415Z,76.77
2023-01-04T17:30:03.186Z,77.04
2023-01-04T17:32:31.120Z,77.26
2023-01-04T17:35:00.991Z,78.05
2023-01-04T17:37:30.095Z,77.62
2023-01-04T17:39:57.734Z,77.18
2023-01-04T17:42:25.382Z,76.68
2023-01-04T17:44:53.524Z,77.06
2023-01-04T17:47:21.183Z,76.05
2023-01-04T17:49:48.940Z,76.58
2023-01-04T17:52:22.173Z,76.55
2023-01-04T17:54:55.071Z,76.83
2023-01-04T17:57:22.724Z,76.66
2023-01-04T17:59:50.877Z,76.94
2023-01-04T18:02:18.636Z,76.72
2023-01-04T18:04:46.727Z,76.86
2023-01-04T18:07:14.373Z,77.30
2023-01-04T18:09:42.405Z,77.08
2023-01-04T18:12:11.456Z,76.70
2023-01-04T18:14:39.160Z,77.35
2023-01-04T18:17:06.889Z,76.86
2023-01-04T18:19:34.914Z,77.63
2023-01-04T18:22:02.660Z,77.23
2023-01-04T18:24:36.597Z,78.21
2023-01-04T18:29:56.640Z,78.65
2023-01-04T18:32:25.804Z,78.51
2023-01-04T18:34:53.680Z,78.68
2023-01-04T18:37:21.919Z,78.68
2023-01-04T18:39:50.220Z,78.81
2023-01-04T18:42:18.263Z,79.24
2023-01-04T18:44:49.101Z,79.41
2023-01-04T18:47:21.898Z,79.27
2023-01-04T18:49:50.328Z,79.39
2023-01-04T18:52:18.725Z,79.63
2023-01-04T18:54:48.249Z,79.68
2023-01-04T18:57:16.608Z,79.39
2023-01-04T18:59:44.500Z,79.02
2023-01-04T19:02:17.903Z,79.37
2023-01-04T19:04:49.259Z,79.01
2023-01-04T19:07:16.920Z,78.51
2023-01-04T19:09:44.951Z,78.59
2023-01-04T19:12:12.769Z,78.59
2023-01-04T19:14:41.793Z,78.65
2023-01-04T19:17:09.798Z,78.29
2023-01-04T19:19:38.912Z,77.65
2023-01-04T19:22:07.899Z,77.98
2023-01-04T19:24:35.946Z,78.16
2023-01-04T19:27:05.153Z,77.74
2023-01-04T19:29:34.368Z,77.42
2023-01-04T19:32:02.163Z,77.51
2023-01-04T19:34:31.156Z,77.47
2023-01-04T19:36:58.885Z,77.09
2023-01-04T19:39:27.946Z,77.02
2023-01-04T19:41:55.631Z,75.89
2023-01-04T19:44:24.065Z,76.11
2023-01-04T19:46:51.747Z,75.80
2023-01-04T19:49:20.030Z,76.16
2023-01-04T19:51:49.320Z,76.13
2023-01-04T19:54:23.147Z,75.93
2023-01-04T19:56:55.220Z,76.05
2023-01-04T19:59:23.821Z,76.15
2023-01-04T20:01:52.006Z,76.56
2023-01-04T20:04:19.900Z,76.02
2023-01-04T20:06:48.025Z,75.97
2023-01-04T20:09:16.288Z,76.17
2023-01-04T20:11:44.307Z,76.48
2023-01-04T20:14:13.326Z,75.84
2023-01-04T20:16:41.614Z,76.25
2023-01-04T20:19:09.724Z,76.09
2023-01-04T20:21:37.789Z,76.37
2023-01-04T20:24:06.018Z,76.39
2023-01-04T20:26:34.333Z,76.06
2023-01-04T20:29:04.126Z,76.13
2023-01-04T20:31:34.754Z,76.72
2023-01-04T20:34:03.257Z,76.28
2023-01-04T20:36:31.715Z,76.33
2023-01-04T20:39:00.436Z,76.24
2023-01-04T20:41:32.081Z,77.03
2023-01-04T20:43:59.720Z,76.26
2023-01-04T20:46:32.679Z,76.35
2023-01-04T20:49:02.419Z,75.96
2023-01-04T20:51:32.156Z,75.98
2023-01-04T20:54:00.638Z,75.99
2023-01-04T20:56:31.505Z,75.98
2023-01-04T20:58:59.350Z,75.90
2023-01-04T21:01:27.374Z,77.17
2023-01-04T21:03:55.195Z,78.01
2023-01-04T21:06:24.831Z,76.93
2023-01-04T21:08:54.929Z,77.42
2023-01-04T21:11:23.028Z,77.00
2023-01-04T21:13:52.111Z,76.87
2023-01-04T21:16:19.860Z,76.25
2023-01-04T21:18:47.858Z,75.58
2023-01-04T21:21:17.342Z,75.68
2023-01-04T21:23:46.779Z,75.96
2023-01-04T21:26:16.790Z,76.85
2023-01-04T21:28:45.394Z,76.64
2023-01-04T21:31:16.655Z,78.12
2023-01-04T21:33:45.364Z,77.71
2023-01-04T21:36:16.065Z,78.49
2023-01-04T21:38:44.828Z,79.75
2023-01-04T21:41:16.148Z,82.80
2023-01-04T21:43:44.323Z,83.45
2023-01-04T21:46:15.847Z,84.11
2023-01-04T21:48:43.918Z,84.26
2023-01-04T21:51:12.525Z,83.32
2023-01-04T21:53:41.046Z,83.39
2023-01-04T21:56:10.722Z,83.04
2023-01-04T21:58:39.812Z,82.40
2023-01-04T22:01:12.457Z,81.40
2023-01-04T22:03:40.484Z,81.74
2023-01-04T22:06:09.289Z,80.56
2023-01-04T22:08:37.218Z,81.28
2023-01-04T22:11:05.079Z,80.88
2023-01-04T22:13:33.064Z,79.95
2023-01-04T22:16:05.975Z,80.55
2023-01-04T22:18:34.225Z,80.32
2023-01-04T22:21:03.644Z,80.34
2023-01-04T22:23:32.225Z,80.67
2023-01-04T22:26:00.809Z,80.03
2023-01-04T22:28:34.805Z,80.42
2023-01-04T22:31:07.490Z,80.23
2023-01-04T22:33:35.751Z,81.13
2023-01-04T22:36:07.169Z,80.91
2023-01-04T22:38:35.759Z,81.37
2023-01-04T22:41:07.511Z,81.30
2023-01-04T22:43:36.064Z,81.75
2023-01-04T22:46:05.762Z,81.83
2023-01-04T22:48:35.809Z,81.75
2023-01-04T22:51:06.978Z,82.78
2023-01-04T22:53:35.093Z,82.08
2023-01-04T22:56:18.886Z,81.94
2023-01-04T22:58:52.477Z,82.29
2023-01-04T23:01:21.611Z,81.71
2023-01-04T23:03:52.402Z,82.94
2023-01-04T23:06:20.610Z,81.85
2023-01-04T23:08:48.575Z,82.35
2023-01-04T23:11:18.244Z,82.67
2023-01-04T23:13:48.504Z,82.21
2023-01-04T23:16:17.677Z,82.33
2023-01-04T23:18:45.580Z,82.37
2023-01-04T23:21:15.564Z,82.70
2023-01-04T23:23:43.833Z,82.20
2023-01-04T23:26:15.745Z,81.68
2023-01-04T23:28:44.147Z,82.05
2023-01-04T23:31:13.404Z,81.99
2023-01-04T23:33:41.456Z,83.21
2023-01-04T23:36:10.977Z,82.06
2023-01-04T23:38:41.029Z,81.83
2023-01-04T23:41:09.142Z,81.87
2023-01-04T23:43:39.329Z,81.76
2023-01-04T23:46:13.905Z,82.22
2023-01-04T23:48:42.406Z,81.61
2023-01-04T23:51:11.059Z,81.55
2023-01-04T23:53:40.399Z,81.32
2023-01-04T23:56:15.362Z,81.12
2023-01-04T23:58:43.754Z,80.84
